sensor_id;sensor_type;location;lat;lon;timestamp;P1;durP1;ratioP1;P2;durP2;ratioP2
72235;SDS011;60146;52.498;13.462;2022-12-18T00:02:12;35.43;;;8.27;;
72235;SDS011;60146;52.498;13.462;2022-12-18T00:04:37;25.17;;;7.10;;
72235;SDS011;60146;52.498;13.462;2022-12-18T00:07:02;28.60;;;6.97;;
72235;SDS011;60146;52.498;13.462;2022-12-18T00:09:28;29.50;;;7.83;;
72235;SDS011;60146;52.498;13.462;2022-12-18T00:11:53;31.50;;;6.97;;
72235;SDS011;60146;52.498;13.462;2022-12-18T00:14:18;27.83;;;7.37;;
72235;SDS011;60146;52.498;13.462;2022-12-18T00:16:44;29.97;;;7.60;;
72235;SDS011;60146;52.498;13.462;2022-12-18T00:19:10;33.38;;;8.13;;
72235;SDS011;60146;52.498;13.462;2022-12-18T00:21:35;30.90;;;7.40;;
72235;SDS011;60146;52.498;13.462;2022-12-18T00:24:00;30.03;;;7.77;;
72235;SDS011;60146;52.498;13.462;2022-12-18T00:26:27;28.57;;;7.77;;
72235;SDS011;60146;52.498;13.462;2022-12-18T00:28:53;32.15;;;7.72;;
72235;SDS011;60146;52.498;13.462;2022-12-18T00:31:21;32.07;;;8.27;;
72235;SDS011;60146;52.498;13.462;2022-12-18T00:33:46;27.63;;;7.70;;
72235;SDS011;60146;52.498;13.462;2022-12-18T00:36:13;31.03;;;6.63;;
72235;SDS011;60146;52.498;13.462;2022-12-18T00:38:39;30.38;;;7.60;;
72235;SDS011;60146;52.498;13.462;2022-12-18T00:41:04;30.40;;;7.33;;
72235;SDS011;60146;52.498;13.462;2022-12-18T00:43:29;23.13;;;6.50;;
72235;SDS011;60146;52.498;13.462;2022-12-18T00:45:55;34.47;;;7.37;;
72235;SDS011;60146;52.498;13.462;2022-12-18T00:48:20;26.23;;;6.20;;
72235;SDS011;60146;52.498;13.462;2022-12-18T00:50:47;28.87;;;6.60;;
72235;SDS011;60146;52.498;13.462;2022-12-18T00:53:12;33.58;;;8.20;;
72235;SDS011;60146;52.498;13.462;2022-12-18T00:55:38;21.77;;;6.33;;
72235;SDS011;60146;52.498;13.462;2022-12-18T00:58:04;22.27;;;6.13;;
72235;SDS011;60146;52.498;13.462;2022-12-18T01:00:29;27.93;;;7.23;;
72235;SDS011;60146;52.498;13.462;2022-12-18T01:02:54;35.43;;;7.83;;
72235;SDS011;60146;52.498;13.462;2022-12-18T01:05:19;30.27;;;8.17;;
72235;SDS011;60146;52.498;13.462;2022-12-18T01:07:44;37.87;;;8.07;;
72235;SDS011;60146;52.498;13.462;2022-12-18T01:10:10;35.93;;;7.90;;
72235;SDS011;60146;52.498;13.462;2022-12-18T01:12:36;19.38;;;6.57;;
72235;SDS011;60146;52.498;13.462;2022-12-18T01:15:02;15.67;;;4.90;;
72235;SDS011;60146;52.498;13.462;2022-12-18T01:17:27;28.57;;;6.67;;
72235;SDS011;60146;52.498;13.462;2022-12-18T01:19:53;25.63;;;6.67;;
72235;SDS011;60146;52.498;13.462;2022-12-18T01:22:18;24.83;;;6.47;;
72235;SDS011;60146;52.498;13.462;2022-12-18T01:24:43;27.00;;;6.50;;
72235;SDS011;60146;52.498;13.462;2022-12-18T01:27:08;32.07;;;7.33;;
72235;SDS011;60146;52.498;13.462;2022-12-18T01:29:34;34.43;;;7.57;;
72235;SDS011;60146;52.498;13.462;2022-12-18T01:31:59;38.03;;;7.60;;
72235;SDS011;60146;52.498;13.462;2022-12-18T01:34:24;28.33;;;8.13;;
72235;SDS011;60146;52.498;13.462;2022-12-18T01:36:49;31.70;;;9.47;;
72235;SDS011;60146;52.498;13.462;2022-12-18T01:39:17;31.67;;;8.10;;
72235;SDS011;60146;52.498;13.462;2022-12-18T01:41:42;37.97;;;9.17;;
72235;SDS011;60146;52.498;13.462;2022-12-18T01:47:55;43.60;;;8.70;;
72235;SDS011;60146;52.498;13.462;2022-12-18T01:50:08;44.45;;;9.73;;
72235;SDS011;60146;52.498;13.462;2022-12-18T01:52:34;42.38;;;9.88;;
72235;SDS011;60146;52.498;13.462;2022-12-18T01:55:00;43.97;;;9.67;;
72235;SDS011;60146;52.498;13.462;2022-12-18T01:57:26;45.95;;;10.15;;
72235;SDS011;60146;52.498;13.462;2022-12-18T01:59:52;45.03;;;10.93;;
72235;SDS011;60146;52.498;13.462;2022-12-18T02:02:19;53.22;;;10.98;;
72235;SDS011;60146;52.498;13.462;2022-12-18T02:04:44;44.67;;;10.60;;
72235;SDS011;60146;52.498;13.462;2022-12-18T02:09:44;50.88;;;10.68;;
72235;SDS011;60146;52.498;13.462;2022-12-18T02:17:18;54.95;;;11.90;;
72235;SDS011;60146;52.498;13.462;2022-12-18T02:22:21;50.38;;;10.98;;
72235;SDS011;60146;52.498;13.462;2022-12-18T02:24:56;52.33;;;10.93;;
72235;SDS011;60146;52.498;13.462;2022-12-18T02:27:24;56.25;;;11.95;;
72235;SDS011;60146;52.498;13.462;2022-12-18T02:29:53;51.07;;;11.33;;
72235;SDS011;60146;52.498;13.462;2022-12-18T02:32:22;50.55;;;11.07;;
72235;SDS011;60146;52.498;13.462;2022-12-18T02:34:49;54.97;;;11.48;;
72235;SDS011;60146;52.498;13.462;2022-12-18T02:37:16;54.10;;;11.10;;
72235;SDS011;60146;52.498;13.462;2022-12-18T02:39:43;49.40;;;11.20;;
72235;SDS011;60146;52.498;13.462;2022-12-18T02:42:09;47.30;;;11.52;;
72235;SDS011;60146;52.498;13.462;2022-12-18T02:44:41;58.30;;;12.80;;
72235;SDS011;60146;52.498;13.462;2022-12-18T02:47:08;46.22;;;9.75;;
72235;SDS011;60146;52.498;13.462;2022-12-18T02:52:02;53.27;;;9.70;;
72235;SDS011;60146;52.498;13.462;2022-12-18T02:56:55;32.30;;;8.27;;
72235;SDS011;60146;52.498;13.462;2022-12-18T02:59:30;41.85;;;10.25;;
72235;SDS011;60146;52.498;13.462;2022-12-18T03:02:09;38.92;;;8.32;;
72235;SDS011;60146;52.498;13.462;2022-12-18T03:04:53;49.45;;;10.45;;
72235;SDS011;60146;52.498;13.462;2022-12-18T03:07:23;41.22;;;8.95;;
72235;SDS011;60146;52.498;13.462;2022-12-18T03:09:50;37.70;;;8.63;;
72235;SDS011;60146;52.498;13.462;2022-12-18T03:12:19;36.22;;;9.18;;
72235;SDS011;60146;52.498;13.462;2022-12-18T03:15:10;34.50;;;8.83;;
72235;SDS011;60146;52.498;13.462;2022-12-18T03:17:34;33.75;;;8.23;;
72235;SDS011;60146;52.498;13.462;2022-12-18T03:20:07;41.17;;;8.97;;
72235;SDS011;60146;52.498;13.462;2022-12-18T03:22:34;36.65;;;9.57;;
72235;SDS011;60146;52.498;13.462;2022-12-18T03:25:00;37.57;;;9.20;;
72235;SDS011;60146;52.498;13.462;2022-12-18T03:27:27;42.47;;;8.77;;
72235;SDS011;60146;52.498;13.462;2022-12-18T03:29:56;33.25;;;7.50;;
72235;SDS011;60146;52.498;13.462;2022-12-18T03:32:28;34.10;;;8.18;;
72235;SDS011;60146;52.498;13.462;2022-12-18T03:34:56;32.83;;;8.23;;
72235;SDS011;60146;52.498;13.462;2022-12-18T03:37:23;41.38;;;9.60;;
72235;SDS011;60146;52.498;13.462;2022-12-18T03:39:48;38.20;;;9.27;;
72235;SDS011;60146;52.498;13.462;2022-12-18T03:42:25;38.73;;;7.87;;
72235;SDS011;60146;52.498;13.462;2022-12-18T03:47:32;33.42;;;8.35;;
72235;SDS011;60146;52.498;13.462;2022-12-18T03:52:29;32.00;;;8.07;;
72235;SDS011;60146;52.498;13.462;2022-12-18T03:54:55;30.98;;;8.30;;
72235;SDS011;60146;52.498;13.462;2022-12-18T03:57:22;34.95;;;7.97;;
72235;SDS011;60146;52.498;13.462;2022-12-18T03:59:49;37.35;;;8.68;;
72235;SDS011;60146;52.498;13.462;2022-12-18T04:02:16;29.63;;;7.32;;
72235;SDS011;60146;52.498;13.462;2022-12-18T04:04:41;28.63;;;7.00;;
72235;SDS011;60146;52.498;13.462;2022-12-18T04:07:07;32.90;;;7.97;;
72235;SDS011;60146;52.498;13.462;2022-12-18T04:09:33;33.03;;;7.67;;
72235;SDS011;60146;52.498;13.462;2022-12-18T04:11:59;35.85;;;7.75;;
72235;SDS011;60146;52.498;13.462;2022-12-18T04:14:24;31.03;;;7.40;;
72235;SDS011;60146;52.498;13.462;2022-12-18T04:16:49;28.03;;;7.97;;
72235;SDS011;60146;52.498;13.462;2022-12-18T04:19:14;33.87;;;8.83;;
72235;SDS011;60146;52.498;13.462;2022-12-18T04:21:40;40.30;;;9.40;;
72235;SDS011;60146;52.498;13.462;2022-12-18T04:24:05;32.03;;;7.63;;
72235;SDS011;60146;52.498;13.462;2022-12-18T04:26:30;32.80;;;7.47;;
72235;SDS011;60146;52.498;13.462;2022-12-18T04:28:55;33.07;;;7.90;;
72235;SDS011;60146;52.498;13.462;2022-12-18T04:31:21;31.03;;;8.30;;
72235;SDS011;60146;52.498;13.462;2022-12-18T04:33:46;27.27;;;6.90;;
72235;SDS011;60146;52.498;13.462;2022-12-18T04:36:11;33.97;;;7.80;;
72235;SDS011;60146;52.498;13.462;2022-12-18T04:38:37;33.03;;;6.97;;
72235;SDS011;60146;52.498;13.462;2022-12-18T04:41:02;28.83;;;7.13;;
72235;SDS011;60146;52.498;13.462;2022-12-18T04:43:28;31.13;;;5.70;;
72235;SDS011;60146;52.498;13.462;2022-12-18T04:45:53;27.03;;;6.50;;
72235;SDS011;60146;52.498;13.462;2022-12-18T04:48:18;26.17;;;7.27;;
72235;SDS011;60146;52.498;13.462;2022-12-18T04:50:46;30.48;;;7.18;;
72235;SDS011;60146;52.498;13.462;2022-12-18T04:53:11;34.95;;;7.90;;
72235;SDS011;60146;52.498;13.462;2022-12-18T04:55:36;29.67;;;7.40;;
72235;SDS011;60146;52.498;13.462;2022-12-18T04:58:01;29.93;;;7.90;;
72235;SDS011;60146;52.498;13.462;2022-12-18T05:00:27;35.10;;;7.57;;
72235;SDS011;60146;52.498;13.462;2022-12-18T05:02:52;33.70;;;7.80;;
72235;SDS011;60146;52.498;13.462;2022-12-18T05:05:18;28.40;;;7.97;;
72235;SDS011;60146;52.498;13.462;2022-12-18T05:07:43;38.73;;;8.20;;
72235;SDS011;60146;52.498;13.462;2022-12-18T05:10:08;38.50;;;7.73;;
72235;SDS011;60146;52.498;13.462;2022-12-18T05:12:34;35.03;;;8.27;;
72235;SDS011;60146;52.498;13.462;2022-12-18T05:15:19;34.38;;;8.30;;
72235;SDS011;60146;52.498;13.462;2022-12-18T05:17:44;27.03;;;8.43;;
72235;SDS011;60146;52.498;13.462;2022-12-18T05:20:09;43.83;;;9.17;;
72235;SDS011;60146;52.498;13.462;2022-12-18T05:22:34;43.73;;;7.93;;
72235;SDS011;60146;52.498;13.462;2022-12-18T05:25:00;36.37;;;7.97;;
72235;SDS011;60146;52.498;13.462;2022-12-18T05:27:25;30.90;;;8.00;;
72235;SDS011;60146;52.498;13.462;2022-12-18T05:29:51;38.93;;;8.57;;
72235;SDS011;60146;52.498;13.462;2022-12-18T05:32:16;38.80;;;8.83;;
72235;SDS011;60146;52.498;13.462;2022-12-18T05:34:41;42.67;;;8.67;;
72235;SDS011;60146;52.498;13.462;2022-12-18T05:37:06;32.80;;;8.60;;
72235;SDS011;60146;52.498;13.462;2022-12-18T05:39:32;30.13;;;7.80;;
72235;SDS011;60146;52.498;13.462;2022-12-18T05:41:57;38.70;;;9.50;;
72235;SDS011;60146;52.498;13.462;2022-12-18T05:44:22;38.27;;;8.03;;
72235;SDS011;60146;52.498;13.462;2022-12-18T05:46:48;40.63;;;8.63;;
72235;SDS011;60146;52.498;13.462;2022-12-18T05:49:13;44.63;;;9.53;;
72235;SDS011;60146;52.498;13.462;2022-12-18T05:51:38;44.67;;;9.07;;
72235;SDS011;60146;52.498;13.462;2022-12-18T05:54:03;39.73;;;9.37;;
72235;SDS011;60146;52.498;13.462;2022-12-18T05:56:28;40.43;;;9.63;;
72235;SDS011;60146;52.498;13.462;2022-12-18T05:58:54;44.77;;;10.43;;
72235;SDS011;60146;52.498;13.462;2022-12-18T06:01:21;37.47;;;9.93;;
72235;SDS011;60146;52.498;13.462;2022-12-18T06:03:46;43.05;;;10.23;;
72235;SDS011;60146;52.498;13.462;2022-12-18T06:06:12;38.63;;;9.80;;
72235;SDS011;60146;52.498;13.462;2022-12-18T06:08:37;49.57;;;9.20;;
72235;SDS011;60146;52.498;13.462;2022-12-18T06:11:03;39.13;;;10.50;;
72235;SDS011;60146;52.498;13.462;2022-12-18T06:13:28;48.30;;;10.90;;
72235;SDS011;60146;52.498;13.462;2022-12-18T06:15:53;48.23;;;10.57;;
72235;SDS011;60146;52.498;13.462;2022-12-18T06:18:18;46.13;;;9.93;;
72235;SDS011;60146;52.498;13.462;2022-12-18T06:20:43;44.40;;;9.73;;
72235;SDS011;60146;52.498;13.462;2022-12-18T06:23:09;45.00;;;10.37;;
72235;SDS011;60146;52.498;13.462;2022-12-18T06:25:36;46.30;;;10.60;;
72235;SDS011;60146;52.498;13.462;2022-12-18T06:28:02;44.97;;;9.95;;
72235;SDS011;60146;52.498;13.462;2022-12-18T06:30:27;39.00;;;10.10;;
72235;SDS011;60146;52.498;13.462;2022-12-18T06:32:58;44.13;;;9.23;;
72235;SDS011;60146;52.498;13.462;2022-12-18T06:35:23;34.22;;;8.93;;
72235;SDS011;60146;52.498;13.462;2022-12-18T06:37:48;40.13;;;10.23;;
72235;SDS011;60146;52.498;13.462;2022-12-18T06:40:14;47.73;;;10.23;;
72235;SDS011;60146;52.498;13.462;2022-12-18T06:42:39;39.63;;;9.20;;
72235;SDS011;60146;52.498;13.462;2022-12-18T06:45:04;37.37;;;8.00;;
72235;SDS011;60146;52.498;13.462;2022-12-18T06:47:30;39.27;;;9.10;;
72235;SDS011;60146;52.498;13.462;2022-12-18T06:49:59;37.60;;;9.00;;
72235;SDS011;60146;52.498;13.462;2022-12-18T06:52:24;42.53;;;7.97;;
72235;SDS011;60146;52.498;13.462;2022-12-18T06:54:50;45.83;;;9.57;;
72235;SDS011;60146;52.498;13.462;2022-12-18T06:57:15;31.47;;;8.10;;
72235;SDS011;60146;52.498;13.462;2022-12-18T06:59:40;31.40;;;6.97;;
72235;SDS011;60146;52.498;13.462;2022-12-18T07:02:06;31.50;;;8.23;;
72235;SDS011;60146;52.498;13.462;2022-12-18T07:04:31;36.93;;;8.80;;
72235;SDS011;60146;52.498;13.462;2022-12-18T07:06:56;39.43;;;9.23;;
72235;SDS011;60146;52.498;13.462;2022-12-18T07:09:22;36.00;;;8.63;;
72235;SDS011;60146;52.498;13.462;2022-12-18T07:11:47;38.80;;;9.03;;
72235;SDS011;60146;52.498;13.462;2022-12-18T07:14:12;47.33;;;9.73;;
72235;SDS011;60146;52.498;13.462;2022-12-18T07:16:38;36.87;;;8.50;;
72235;SDS011;60146;52.498;13.462;2022-12-18T07:19:03;38.97;;;7.90;;
72235;SDS011;60146;52.498;13.462;2022-12-18T07:21:28;35.27;;;8.07;;
72235;SDS011;60146;52.498;13.462;2022-12-18T07:23:53;29.77;;;8.60;;
72235;SDS011;60146;52.498;13.462;2022-12-18T07:26:19;38.73;;;10.80;;
72235;SDS011;60146;52.498;13.462;2022-12-18T07:28:45;37.95;;;9.15;;
72235;SDS011;60146;52.498;13.462;2022-12-18T07:31:12;40.43;;;10.17;;
72235;SDS011;60146;52.498;13.462;2022-12-18T07:33:38;40.78;;;9.52;;
72235;SDS011;60146;52.498;13.462;2022-12-18T07:36:04;34.77;;;8.87;;
72235;SDS011;60146;52.498;13.462;2022-12-18T07:38:30;40.00;;;9.15;;
72235;SDS011;60146;52.498;13.462;2022-12-18T07:41:00;42.83;;;8.73;;
72235;SDS011;60146;52.498;13.462;2022-12-18T07:43:25;45.47;;;9.68;;
72235;SDS011;60146;52.498;13.462;2022-12-18T07:45:50;39.10;;;8.97;;
72235;SDS011;60146;52.498;13.462;2022-12-18T07:48:16;38.67;;;9.40;;
72235;SDS011;60146;52.498;13.462;2022-12-18T07:50:41;41.03;;;8.83;;
72235;SDS011;60146;52.498;13.462;2022-12-18T07:53:06;41.83;;;9.00;;
72235;SDS011;60146;52.498;13.462;2022-12-18T07:55:32;35.67;;;8.97;;
72235;SDS011;60146;52.498;13.462;2022-12-18T07:58:00;41.37;;;9.77;;
72235;SDS011;60146;52.498;13.462;2022-12-18T08:00:25;41.55;;;9.77;;
72235;SDS011;60146;52.498;13.462;2022-12-18T08:02:50;40.67;;;9.63;;
72235;SDS011;60146;52.498;13.462;2022-12-18T08:05:22;32.77;;;8.20;;
72235;SDS011;60146;52.498;13.462;2022-12-18T08:07:47;35.38;;;8.90;;
72235;SDS011;60146;52.498;13.462;2022-12-18T08:10:22;36.30;;;9.13;;
72235;SDS011;60146;52.498;13.462;2022-12-18T08:12:56;30.63;;;8.35;;
72235;SDS011;60146;52.498;13.462;2022-12-18T08:15:25;44.03;;;10.03;;
72235;SDS011;60146;52.498;13.462;2022-12-18T08:17:56;46.03;;;9.23;;
72235;SDS011;60146;52.498;13.462;2022-12-18T08:23:23;29.15;;;8.25;;
72235;SDS011;60146;52.498;13.462;2022-12-18T08:29:05;37.38;;;9.95;;
72235;SDS011;60146;52.498;13.462;2022-12-18T08:31:35;30.05;;;7.65;;
72235;SDS011;60146;52.498;13.462;2022-12-18T08:34:01;26.10;;;7.73;;
72235;SDS011;60146;52.498;13.462;2022-12-18T08:36:27;33.90;;;8.73;;
72235;SDS011;60146;52.498;13.462;2022-12-18T08:38:53;33.73;;;8.20;;
72235;SDS011;60146;52.498;13.462;2022-12-18T08:41:19;28.05;;;7.50;;
72235;SDS011;60146;52.498;13.462;2022-12-18T08:43:45;26.98;;;6.57;;
72235;SDS011;60146;52.498;13.462;2022-12-18T08:46:34;25.38;;;6.53;;
72235;SDS011;60146;52.498;13.462;2022-12-18T08:49:00;28.85;;;7.47;;
72235;SDS011;60146;52.498;13.462;2022-12-18T08:51:25;26.40;;;7.13;;
72235;SDS011;60146;52.498;13.462;2022-12-18T08:53:50;33.23;;;8.60;;
72235;SDS011;60146;52.498;13.462;2022-12-18T08:56:16;34.20;;;7.30;;
72235;SDS011;60146;52.498;13.462;2022-12-18T08:58:42;25.83;;;7.47;;
72235;SDS011;60146;52.498;13.462;2022-12-18T09:01:08;33.00;;;7.90;;
72235;SDS011;60146;52.498;13.462;2022-12-18T09:03:37;35.03;;;8.10;;
72235;SDS011;60146;52.498;13.462;2022-12-18T09:06:03;33.63;;;8.25;;
72235;SDS011;60146;52.498;13.462;2022-12-18T09:08:29;29.17;;;7.83;;
72235;SDS011;60146;52.498;13.462;2022-12-18T09:10:54;32.77;;;8.37;;
72235;SDS011;60146;52.498;13.462;2022-12-18T09:13:20;31.67;;;8.80;;
72235;SDS011;60146;52.498;13.462;2022-12-18T09:15:50;28.77;;;7.17;;
72235;SDS011;60146;52.498;13.462;2022-12-18T09:18:17;35.25;;;9.32;;
72235;SDS011;60146;52.498;13.462;2022-12-18T09:20:43;29.63;;;9.15;;
72235;SDS011;60146;52.498;13.462;2022-12-18T09:23:09;26.67;;;7.17;;
72235;SDS011;60146;52.498;13.462;2022-12-18T09:25:34;32.90;;;8.83;;
72235;SDS011;60146;52.498;13.462;2022-12-18T09:28:04;28.10;;;7.57;;
72235;SDS011;60146;52.498;13.462;2022-12-18T09:30:30;33.05;;;7.70;;
72235;SDS011;60146;52.498;13.462;2022-12-18T09:32:58;30.63;;;7.87;;
72235;SDS011;60146;52.498;13.462;2022-12-18T09:35:23;37.60;;;7.80;;
72235;SDS011;60146;52.498;13.462;2022-12-18T09:37:49;30.53;;;7.50;;
72235;SDS011;60146;52.498;13.462;2022-12-18T09:40:18;33.30;;;8.50;;
72235;SDS011;60146;52.498;13.462;2022-12-18T09:42:45;33.72;;;8.52;;
72235;SDS011;60146;52.498;13.462;2022-12-18T09:45:12;22.00;;;5.73;;
72235;SDS011;60146;52.498;13.462;2022-12-18T09:47:39;35.77;;;8.20;;
72235;SDS011;60146;52.498;13.462;2022-12-18T09:50:07;34.47;;;8.57;;
72235;SDS011;60146;52.498;13.462;2022-12-18T09:52:41;31.63;;;8.90;;
72235;SDS011;60146;52.498;13.462;2022-12-18T09:55:10;36.47;;;9.30;;
72235;SDS011;60146;52.498;13.462;2022-12-18T09:57:37;39.10;;;9.23;;
72235;SDS011;60146;52.498;13.462;2022-12-18T10:00:18;37.77;;;9.47;;
72235;SDS011;60146;52.498;13.462;2022-12-18T10:02:44;45.47;;;9.77;;
72235;SDS011;60146;52.498;13.462;2022-12-18T10:05:13;39.60;;;9.33;;
72235;SDS011;60146;52.498;13.462;2022-12-18T10:07:47;39.25;;;9.32;;
72235;SDS011;60146;52.498;13.462;2022-12-18T10:20:53;29.23;;;7.43;;
72235;SDS011;60146;52.498;13.462;2022-12-18T10:23:27;35.23;;;7.93;;
72235;SDS011;60146;52.498;13.462;2022-12-18T10:26:05;32.80;;;8.53;;
72235;SDS011;60146;52.498;13.462;2022-12-18T10:28:32;40.97;;;9.37;;
72235;SDS011;60146;52.498;13.462;2022-12-18T10:30:58;31.60;;;8.07;;
72235;SDS011;60146;52.498;13.462;2022-12-18T10:33:27;29.07;;;8.60;;
72235;SDS011;60146;52.498;13.462;2022-12-18T10:35:53;37.60;;;8.57;;
72235;SDS011;60146;52.498;13.462;2022-12-18T10:40:55;38.07;;;8.83;;
72235;SDS011;60146;52.498;13.462;2022-12-18T10:43:27;32.07;;;8.63;;
72235;SDS011;60146;52.498;13.462;2022-12-18T10:46:04;29.07;;;8.33;;
72235;SDS011;60146;52.498;13.462;2022-12-18T10:56:48;38.93;;;9.20;;
72235;SDS011;60146;52.498;13.462;2022-12-18T10:59:14;34.13;;;9.17;;
72235;SDS011;60146;52.498;13.462;2022-12-18T11:01:48;33.80;;;8.60;;
72235;SDS011;60146;52.498;13.462;2022-12-18T11:04:21;30.77;;;8.07;;
72235;SDS011;60146;52.498;13.462;2022-12-18T11:07:03;36.03;;;9.57;;
72235;SDS011;60146;52.498;13.462;2022-12-18T11:09:36;31.37;;;8.50;;
72235;SDS011;60146;52.498;13.462;2022-12-18T11:12:18;33.00;;;8.67;;
72235;SDS011;60146;52.498;13.462;2022-12-18T11:17:21;34.43;;;8.07;;
72235;SDS011;60146;52.498;13.462;2022-12-18T11:19:53;27.90;;;7.78;;
72235;SDS011;60146;52.498;13.462;2022-12-18T11:22:20;32.30;;;8.50;;
72235;SDS011;60146;52.498;13.462;2022-12-18T11:24:52;26.90;;;8.50;;
72235;SDS011;60146;52.498;13.462;2022-12-18T11:27:18;32.37;;;8.37;;
72235;SDS011;60146;52.498;13.462;2022-12-18T11:29:43;28.63;;;8.30;;
72235;SDS011;60146;52.498;13.462;2022-12-18T11:34:45;32.03;;;8.03;;
72235;SDS011;60146;52.498;13.462;2022-12-18T11:37:12;31.10;;;8.43;;
72235;SDS011;60146;52.498;13.462;2022-12-18T11:48:00;25.47;;;7.37;;
72235;SDS011;60146;52.498;13.462;2022-12-18T11:50:32;30.43;;;7.07;;
72235;SDS011;60146;52.498;13.462;2022-12-18T11:52:58;35.00;;;8.83;;
72235;SDS011;60146;52.498;13.462;2022-12-18T11:58:11;26.23;;;6.73;;
72235;SDS011;60146;52.498;13.462;2022-12-18T12:00:40;31.52;;;8.05;;
72235;SDS011;60146;52.498;13.462;2022-12-18T12:08:27;24.77;;;7.33;;
72235;SDS011;60146;52.498;13.462;2022-12-18T12:15:58;35.47;;;8.17;;
72235;SDS011;60146;52.498;13.462;2022-12-18T12:18:34;28.40;;;7.77;;
72235;SDS011;60146;52.498;13.462;2022-12-18T12:21:15;28.57;;;8.20;;
72235;SDS011;60146;52.498;13.462;2022-12-18T12:26:18;32.67;;;8.27;;
72235;SDS011;60146;52.498;13.462;2022-12-18T12:38:40;30.93;;;8.33;;
72235;SDS011;60146;52.498;13.462;2022-12-18T12:43:52;27.27;;;8.23;;
72235;SDS011;60146;52.498;13.462;2022-12-18T12:46:21;25.63;;;8.00;;
72235;SDS011;60146;52.498;13.462;2022-12-18T12:48:52;34.43;;;8.67;;
72235;SDS011;60146;52.498;13.462;2022-12-18T12:53:43;23.52;;;7.20;;
72235;SDS011;60146;52.498;13.462;2022-12-18T12:56:10;23.37;;;7.43;;
72235;SDS011;60146;52.498;13.462;2022-12-18T13:01:04;25.47;;;7.83;;
72235;SDS011;60146;52.498;13.462;2022-12-18T13:03:45;22.87;;;7.60;;
72235;SDS011;60146;52.498;13.462;2022-12-18T13:08:53;26.83;;;8.03;;
72235;SDS011;60146;52.498;13.462;2022-12-18T13:11:34;30.33;;;8.00;;
72235;SDS011;60146;52.498;13.462;2022-12-18T13:14:23;25.53;;;8.00;;
72235;SDS011;60146;52.498;13.462;2022-12-18T13:16:48;37.85;;;8.73;;
72235;SDS011;60146;52.498;13.462;2022-12-18T13:19:23;30.60;;;9.03;;
72235;SDS011;60146;52.498;13.462;2022-12-18T13:21:52;27.87;;;7.57;;
72235;SDS011;60146;52.498;13.462;2022-12-18T13:26:48;29.57;;;8.80;;
72235;SDS011;60146;52.498;13.462;2022-12-18T13:29:21;26.03;;;7.80;;
72235;SDS011;60146;52.498;13.462;2022-12-18T13:32:01;25.77;;;8.33;;
72235;SDS011;60146;52.498;13.462;2022-12-18T13:34:27;30.53;;;7.70;;
72235;SDS011;60146;52.498;13.462;2022-12-18T13:42:39;25.63;;;7.70;;
72235;SDS011;60146;52.498;13.462;2022-12-18T13:45:40;23.23;;;7.90;;
72235;SDS011;60146;52.498;13.462;2022-12-18T13:48:13;27.10;;;7.27;;
72235;SDS011;60146;52.498;13.462;2022-12-18T13:50:39;28.23;;;7.33;;
72235;SDS011;60146;52.498;13.462;2022-12-18T13:53:04;25.73;;;7.77;;
72235;SDS011;60146;52.498;13.462;2022-12-18T13:55:30;24.27;;;7.83;;
72235;SDS011;60146;52.498;13.462;2022-12-18T13:58:05;26.77;;;8.80;;
72235;SDS011;60146;52.498;13.462;2022-12-18T14:00:30;26.50;;;8.37;;
72235;SDS011;60146;52.498;13.462;2022-12-18T14:02:57;30.10;;;10.07;;
72235;SDS011;60146;52.498;13.462;2022-12-18T14:05:26;34.57;;;9.47;;
72235;SDS011;60146;52.498;13.462;2022-12-18T14:07:52;34.83;;;9.70;;
72235;SDS011;60146;52.498;13.462;2022-12-18T14:10:19;33.20;;;9.27;;
72235;SDS011;60146;52.498;13.462;2022-12-18T14:12:47;41.80;;;10.87;;
72235;SDS011;60146;52.498;13.462;2022-12-18T14:17:58;28.03;;;9.47;;
72235;SDS011;60146;52.498;13.462;2022-12-18T14:20:24;31.50;;;9.70;;
72235;SDS011;60146;52.498;13.462;2022-12-18T14:22:53;33.17;;;9.00;;
72235;SDS011;60146;52.498;13.462;2022-12-18T14:25:20;30.10;;;8.53;;
72235;SDS011;60146;52.498;13.462;2022-12-18T14:27:47;28.60;;;9.30;;
72235;SDS011;60146;52.498;13.462;2022-12-18T14:33:09;29.60;;;7.75;;
72235;SDS011;60146;52.498;13.462;2022-12-18T14:35:36;24.40;;;8.30;;
72235;SDS011;60146;52.498;13.462;2022-12-18T14:40:47;23.47;;;7.43;;
72235;SDS011;60146;52.498;13.462;2022-12-18T14:43:12;24.53;;;7.83;;
72235;SDS011;60146;52.498;13.462;2022-12-18T14:45:39;28.00;;;8.43;;
72235;SDS011;60146;52.498;13.462;2022-12-18T14:48:48;18.57;;;5.77;;
72235;SDS011;60146;52.498;13.462;2022-12-18T15:00:23;21.63;;;8.03;;
72235;SDS011;60146;52.498;13.462;2022-12-18T15:18:23;26.67;;;8.07;;
72235;SDS011;60146;52.498;13.462;2022-12-18T15:20:53;33.83;;;9.90;;
72235;SDS011;60146;52.498;13.462;2022-12-18T15:23:21;28.43;;;9.77;;
72235;SDS011;60146;52.498;13.462;2022-12-18T15:25:56;27.70;;;8.37;;
72235;SDS011;60146;52.498;13.462;2022-12-18T15:28:35;25.20;;;8.07;;
72235;SDS011;60146;52.498;13.462;2022-12-18T15:36:17;31.37;;;8.23;;
72235;SDS011;60146;52.498;13.462;2022-12-18T15:38:49;25.00;;;8.53;;
72235;SDS011;60146;52.498;13.462;2022-12-18T15:41:18;31.27;;;8.97;;
72235;SDS011;60146;52.498;13.462;2022-12-18T15:43:44;27.47;;;8.40;;
72235;SDS011;60146;52.498;13.462;2022-12-18T15:46:13;25.60;;;8.33;;
72235;SDS011;60146;52.498;13.462;2022-12-18T15:48:40;26.00;;;7.60;;
72235;SDS011;60146;52.498;13.462;2022-12-18T15:51:09;23.03;;;6.73;;
72235;SDS011;60146;52.498;13.462;2022-12-18T15:53:36;25.52;;;7.50;;
72235;SDS011;60146;52.498;13.462;2022-12-18T15:56:01;21.70;;;7.17;;
72235;SDS011;60146;52.498;13.462;2022-12-18T15:58:45;25.60;;;8.47;;
72235;SDS011;60146;52.498;13.462;2022-12-18T16:01:11;22.43;;;7.93;;
72235;SDS011;60146;52.498;13.462;2022-12-18T16:03:36;22.00;;;7.33;;
72235;SDS011;60146;52.498;13.462;2022-12-18T16:06:01;20.23;;;6.80;;
72235;SDS011;60146;52.498;13.462;2022-12-18T16:08:27;24.17;;;7.97;;
72235;SDS011;60146;52.498;13.462;2022-12-18T16:10:54;23.47;;;6.80;;
72235;SDS011;60146;52.498;13.462;2022-12-18T16:13:19;24.93;;;7.83;;
72235;SDS011;60146;52.498;13.462;2022-12-18T16:15:45;27.50;;;8.50;;
72235;SDS011;60146;52.498;13.462;2022-12-18T16:18:10;27.00;;;8.80;;
72235;SDS011;60146;52.498;13.462;2022-12-18T16:20:35;21.40;;;7.83;;
72235;SDS011;60146;52.498;13.462;2022-12-18T16:23:04;28.20;;;8.57;;
72235;SDS011;60146;52.498;13.462;2022-12-18T16:25:29;32.53;;;8.50;;
72235;SDS011;60146;52.498;13.462;2022-12-18T16:27:55;32.27;;;8.40;;
72235;SDS011;60146;52.498;13.462;2022-12-18T16:30:21;27.83;;;8.37;;
72235;SDS011;60146;52.498;13.462;2022-12-18T16:32:47;29.23;;;8.63;;
72235;SDS011;60146;52.498;13.462;2022-12-18T16:35:13;27.50;;;8.73;;
72235;SDS011;60146;52.498;13.462;2022-12-18T16:37:39;25.13;;;8.30;;
72235;SDS011;60146;52.498;13.462;2022-12-18T16:40:06;24.17;;;7.77;;
72235;SDS011;60146;52.498;13.462;2022-12-18T16:42:33;18.80;;;7.07;;
72235;SDS011;60146;52.498;13.462;2022-12-18T16:44:59;27.10;;;9.00;;
72235;SDS011;60146;52.498;13.462;2022-12-18T16:53:20;23.43;;;7.30;;
72235;SDS011;60146;52.498;13.462;2022-12-18T16:55:47;28.50;;;8.17;;
72235;SDS011;60146;52.498;13.462;2022-12-18T16:58:18;24.40;;;8.67;;